sensor_id;sensor_type;location;lat;lon;timestamp;P1;durP1;ratioP1;P2;durP2;ratioP2
11422;SDS011;5768;51.476;7.210;2023-09-12T00:01:16;3.50;;;3.20;;
11422;SDS011;5768;51.476;7.210;2023-09-12T00:06:18;4.80;;;3.45;;
11422;SDS011;5768;51.476;7.210;2023-09-12T00:11:20;4.07;;;3.67;;
11422;SDS011;5768;51.476;7.210;2023-09-12T00:16:27;4.90;;;4.20;;
11422;SDS011;5768;51.476;7.210;2023-09-12T00:21:29;4.32;;;3.92;;
11422;SDS011;5768;51.476;7.210;2023-09-12T00:26:31;5.40;;;4.47;;
11422;SDS011;5768;51.476;7.210;2023-09-12T00:31:35;5.00;;;3.85;;
11422;SDS011;5768;51.476;7.210;2023-09-12T00:36:37;4.13;;;3.72;;
11422;SDS011;5768;51.476;7.210;2023-09-12T00:41:40;4.13;;;3.83;;
11422;SDS011;5768;51.476;7.210;2023-09-12T00:46:43;4.43;;;4.00;;
11422;SDS011;5768;51.476;7.210;2023-09-12T00:51:48;4.25;;;3.85;;
11422;SDS011;5768;51.476;7.210;2023-09-12T00:56:52;4.40;;;3.85;;
11422;SDS011;5768;51.476;7.210;2023-09-12T01:01:56;4.70;;;4.30;;
11422;SDS011;5768;51.476;7.210;2023-09-12T01:06:59;5.70;;;5.20;;
11422;SDS011;5768;51.476;7.210;2023-09-12T01:12:03;5.88;;;5.38;;
11422;SDS011;5768;51.476;7.210;2023-09-12T01:17:08;7.05;;;6.35;;
11422;SDS011;5768;51.476;7.210;2023-09-12T01:22:19;8.82;;;6.22;;
11422;SDS011;5768;51.476;7.210;2023-09-12T01:27:44;7.10;;;5.97;;
11422;SDS011;5768;51.476;7.210;2023-09-12T01:32:49;8.75;;;7.10;;
11422;SDS011;5768;51.476;7.210;2023-09-12T01:37:53;11.57;;;9.20;;
11422;SDS011;5768;51.476;7.210;2023-09-12T01:42:57;11.05;;;10.00;;
11422;SDS011;5768;51.476;7.210;2023-09-12T01:48:04;11.50;;;10.35;;
11422;SDS011;5768;51.476;7.210;2023-09-12T01:53:08;10.55;;;9.07;;
11422;SDS011;5768;51.476;7.210;2023-09-12T01:58:12;10.05;;;9.02;;
11422;SDS011;5768;51.476;7.210;2023-09-12T02:03:16;10.15;;;9.10;;
11422;SDS011;5768;51.476;7.210;2023-09-12T02:08:18;11.43;;;10.35;;
11422;SDS011;5768;51.476;7.210;2023-09-12T02:13:22;12.15;;;10.93;;
11422;SDS011;5768;51.476;7.210;2023-09-12T02:18:24;12.30;;;11.10;;
11422;SDS011;5768;51.476;7.210;2023-09-12T02:23:30;12.10;;;10.90;;
11422;SDS011;5768;51.476;7.210;2023-09-12T02:28:34;12.65;;;11.32;;
11422;SDS011;5768;51.476;7.210;2023-09-12T02:33:36;13.38;;;11.18;;
11422;SDS011;5768;51.476;7.210;2023-09-12T02:38:39;13.18;;;11.88;;
11422;SDS011;5768;51.476;7.210;2023-09-12T02:43:43;13.13;;;11.82;;
11422;SDS011;5768;51.476;7.210;2023-09-12T02:48:45;14.05;;;12.57;;
11422;SDS011;5768;51.476;7.210;2023-09-12T02:53:47;13.45;;;11.82;;
11422;SDS011;5768;51.476;7.210;2023-09-12T02:58:51;12.82;;;11.52;;
11422;SDS011;5768;51.476;7.210;2023-09-12T03:03:54;13.38;;;11.60;;
11422;SDS011;5768;51.476;7.210;2023-09-12T03:08:56;12.80;;;11.52;;
11422;SDS011;5768;51.476;7.210;2023-09-12T03:14:02;13.02;;;11.02;;
11422;SDS011;5768;51.476;7.210;2023-09-12T03:19:04;11.57;;;10.50;;
11422;SDS011;5768;51.476;7.210;2023-09-12T03:24:07;12.35;;;11.05;;
11422;SDS011;5768;51.476;7.210;2023-09-12T03:29:10;11.55;;;10.45;;
11422;SDS011;5768;51.476;7.210;2023-09-12T03:34:13;12.43;;;11.05;;
11422;SDS011;5768;51.476;7.210;2023-09-12T03:39:15;12.00;;;10.93;;
11422;SDS011;5768;51.476;7.210;2023-09-12T03:44:19;23.60;;;14.40;;
11422;SDS011;5768;51.476;7.210;2023-09-12T03:49:22;19.63;;;12.60;;
11422;SDS011;5768;51.476;7.210;2023-09-12T03:54:24;15.25;;;13.52;;
11422;SDS011;5768;51.476;7.210;2023-09-12T03:59:28;17.27;;;14.27;;
11422;SDS011;5768;51.476;7.210;2023-09-12T04:04:30;17.30;;;15.60;;
11422;SDS011;5768;51.476;7.210;2023-09-12T04:09:32;16.95;;;15.38;;
11422;SDS011;5768;51.476;7.210;2023-09-12T04:14:36;17.13;;;15.50;;
11422;SDS011;5768;51.476;7.210;2023-09-12T04:19:38;18.40;;;16.48;;
11422;SDS011;5768;51.476;7.210;2023-09-12T04:24:40;17.83;;;16.17;;
11422;SDS011;5768;51.476;7.210;2023-09-12T04:29:44;17.95;;;16.15;;
11422;SDS011;5768;51.476;7.210;2023-09-12T04:34:47;17.27;;;14.80;;
11422;SDS011;5768;51.476;7.210;2023-09-12T04:39:49;16.08;;;13.93;;
11422;SDS011;5768;51.476;7.210;2023-09-12T04:44:53;15.65;;;13.60;;
11422;SDS011;5768;51.476;7.210;2023-09-12T04:49:55;15.75;;;14.13;;
11422;SDS011;5768;51.476;7.210;2023-09-12T04:54:58;13.82;;;12.50;;
11422;SDS011;5768;51.476;7.210;2023-09-12T05:00:01;13.80;;;12.13;;
11422;SDS011;5768;51.476;7.210;2023-09-12T05:05:06;13.30;;;12.00;;
11422;SDS011;5768;51.476;7.210;2023-09-12T05:10:09;15.02;;;10.95;;
11422;SDS011;5768;51.476;7.210;2023-09-12T05:15:13;12.93;;;10.98;;
11422;SDS011;5768;51.476;7.210;2023-09-12T05:20:16;11.77;;;10.55;;
11422;SDS011;5768;51.476;7.210;2023-09-12T05:25:21;11.63;;;10.43;;
11422;SDS011;5768;51.476;7.210;2023-09-12T05:30:27;10.70;;;9.77;;
11422;SDS011;5768;51.476;7.210;2023-09-12T05:35:29;10.95;;;9.85;;
11422;SDS011;5768;51.476;7.210;2023-09-12T05:40:32;16.85;;;11.27;;
11422;SDS011;5768;51.476;7.210;2023-09-12T05:45:36;16.23;;;12.07;;
11422;SDS011;5768;51.476;7.210;2023-09-12T05:50:38;13.45;;;9.65;;
11422;SDS011;5768;51.476;7.210;2023-09-12T05:55:40;13.02;;;10.77;;
11422;SDS011;5768;51.476;7.210;2023-09-12T06:00:44;11.40;;;10.07;;
11422;SDS011;5768;51.476;7.210;2023-09-12T06:05:47;11.43;;;9.48;;
11422;SDS011;5768;51.476;7.210;2023-09-12T06:10:49;12.35;;;10.77;;
11422;SDS011;5768;51.476;7.210;2023-09-12T06:15:55;14.60;;;10.98;;
11422;SDS011;5768;51.476;7.210;2023-09-12T06:20:57;15.95;;;10.60;;
11422;SDS011;5768;51.476;7.210;2023-09-12T06:26:02;11.25;;;10.13;;
11422;SDS011;5768;51.476;7.210;2023-09-12T06:31:09;12.75;;;11.05;;
11422;SDS011;5768;51.476;7.210;2023-09-12T06:36:11;13.82;;;10.45;;
11422;SDS011;5768;51.476;7.210;2023-09-12T06:41:13;10.18;;;8.95;;
11422;SDS011;5768;51.476;7.210;2023-09-12T06:46:16;14.45;;;11.75;;
11422;SDS011;5768;51.476;7.210;2023-09-12T06:51:22;9.93;;;9.00;;
11422;SDS011;5768;51.476;7.210;2023-09-12T06:56:26;10.23;;;8.07;;
11422;SDS011;5768;51.476;7.210;2023-09-12T07:01:29;12.30;;;9.77;;
11422;SDS011;5768;51.476;7.210;2023-09-12T07:06:32;15.20;;;12.63;;
11422;SDS011;5768;51.476;7.210;2023-09-12T07:11:34;11.82;;;9.90;;
11422;SDS011;5768;51.476;7.210;2023-09-12T07:16:38;8.02;;;6.53;;
11422;SDS011;5768;51.476;7.210;2023-09-12T07:21:40;8.02;;;6.20;;
11422;SDS011;5768;51.476;7.210;2023-09-12T07:26:42;8.52;;;5.78;;
11422;SDS011;5768;51.476;7.210;2023-09-12T07:31:47;7.25;;;4.97;;
11422;SDS011;5768;51.476;7.210;2023-09-12T07:36:56;7.50;;;4.93;;
11422;SDS011;5768;51.476;7.210;2023-09-12T07:41:58;5.38;;;4.88;;
11422;SDS011;5768;51.476;7.210;2023-09-12T07:47:02;5.88;;;5.38;;
11422;SDS011;5768;51.476;7.210;2023-09-12T07:52:05;5.90;;;5.28;;
11422;SDS011;5768;51.476;7.210;2023-09-12T07:57:08;7.53;;;5.60;;
11422;SDS011;5768;51.476;7.210;2023-09-12T08:02:11;6.78;;;6.10;;
11422;SDS011;5768;51.476;7.210;2023-09-12T08:07:13;8.82;;;6.25;;
11422;SDS011;5768;51.476;7.210;2023-09-12T08:12:16;5.90;;;5.30;;
11422;SDS011;5768;51.476;7.210;2023-09-12T08:17:21;6.10;;;5.50;;
11422;SDS011;5768;51.476;7.210;2023-09-12T08:22:24;5.65;;;5.15;;
11422;SDS011;5768;51.476;7.210;2023-09-12T08:27:26;5.88;;;4.78;;
11422;SDS011;5768;51.476;7.210;2023-09-12T08:32:29;5.80;;;4.72;;
11422;SDS011;5768;51.476;7.210;2023-09-12T08:37:32;4.47;;;3.47;;
11422;SDS011;5768;51.476;7.210;2023-09-12T08:42:35;5.28;;;2.97;;
11422;SDS011;5768;51.476;7.210;2023-09-12T08:47:49;6.20;;;3.85;;
11422;SDS011;5768;51.476;7.210;2023-09-12T08:52:54;4.35;;;3.70;;
11422;SDS011;5768;51.476;7.210;2023-09-12T08:57:57;3.78;;;3.35;;
11422;SDS011;5768;51.476;7.210;2023-09-12T09:03:02;3.65;;;3.10;;
11422;SDS011;5768;51.476;7.210;2023-09-12T09:08:06;6.55;;;6.00;;
11422;SDS011;5768;51.476;7.210;2023-09-12T09:13:09;9.00;;;8.20;;
11422;SDS011;5768;51.476;7.210;2023-09-12T09:18:14;10.13;;;9.23;;
11422;SDS011;5768;51.476;7.210;2023-09-12T09:23:17;11.40;;;10.27;;
11422;SDS011;5768;51.476;7.210;2023-09-12T09:28:19;10.50;;;9.40;;
11422;SDS011;5768;51.476;7.210;2023-09-12T09:33:25;11.18;;;10.18;;
11422;SDS011;5768;51.476;7.210;2023-09-12T09:38:28;10.38;;;9.55;;
11422;SDS011;5768;51.476;7.210;2023-09-12T09:43:30;9.90;;;9.00;;
11422;SDS011;5768;51.476;7.210;2023-09-12T09:48:34;9.48;;;8.50;;
11422;SDS011;5768;51.476;7.210;2023-09-12T09:53:37;9.63;;;8.73;;
11422;SDS011;5768;51.476;7.210;2023-09-12T09:58:46;9.77;;;8.98;;
11422;SDS011;5768;51.476;7.210;2023-09-12T10:03:50;8.15;;;6.25;;
11422;SDS011;5768;51.476;7.210;2023-09-12T10:08:54;6.03;;;5.47;;
11422;SDS011;5768;51.476;7.210;2023-09-12T10:14:00;6.95;;;6.35;;
11422;SDS011;5768;51.476;7.210;2023-09-12T10:19:10;6.30;;;5.72;;
11422;SDS011;5768;51.476;7.210;2023-09-12T10:24:18;8.73;;;7.85;;
11422;SDS011;5768;51.476;7.210;2023-09-12T10:29:24;7.43;;;6.57;;
11422;SDS011;5768;51.476;7.210;2023-09-12T10:34:27;6.82;;;6.22;;
11422;SDS011;5768;51.476;7.210;2023-09-12T10:39:33;5.30;;;4.85;;
11422;SDS011;5768;51.476;7.210;2023-09-12T10:44:36;4.53;;;4.13;;
11422;SDS011;5768;51.476;7.210;2023-09-12T10:49:40;4.30;;;3.47;;
11422;SDS011;5768;51.476;7.210;2023-09-12T10:54:45;5.30;;;4.05;;
11422;SDS011;5768;51.476;7.210;2023-09-12T11:16:21;5.07;;;3.75;;
11422;SDS011;5768;51.476;7.210;2023-09-12T11:21:32;4.30;;;3.90;;
11422;SDS011;5768;51.476;7.210;2023-09-12T11:26:34;3.80;;;3.40;;
11422;SDS011;5768;51.476;7.210;2023-09-12T11:31:37;4.18;;;3.78;;
11422;SDS011;5768;51.476;7.210;2023-09-12T11:36:45;4.35;;;3.95;;
11422;SDS011;5768;51.476;7.210;2023-09-12T11:41:48;4.15;;;3.75;;
11422;SDS011;5768;51.476;7.210;2023-09-12T11:46:50;4.35;;;3.28;;
11422;SDS011;5768;51.476;7.210;2023-09-12T11:51:56;3.80;;;3.50;;
11422;SDS011;5768;51.476;7.210;2023-09-12T11:56:58;4.22;;;3.83;;
11422;SDS011;5768;51.476;7.210;2023-09-12T12:02:05;4.00;;;3.67;;
11422;SDS011;5768;51.476;7.210;2023-09-12T12:07:10;4.60;;;3.67;;
11422;SDS011;5768;51.476;7.210;2023-09-12T12:12:14;3.60;;;3.30;;
11422;SDS011;5768;51.476;7.210;2023-09-12T12:17:16;4.65;;;3.50;;
11422;SDS011;5768;51.476;7.210;2023-09-12T12:22:20;3.88;;;3.50;;
11422;SDS011;5768;51.476;7.210;2023-09-12T12:27:22;4.35;;;3.95;;
11422;SDS011;5768;51.476;7.210;2023-09-12T12:32:24;3.33;;;2.85;;
11422;SDS011;5768;51.476;7.210;2023-09-12T12:37:29;3.90;;;3.60;;
11422;SDS011;5768;51.476;7.210;2023-09-12T12:42:35;4.78;;;3.40;;
11422;SDS011;5768;51.476;7.210;2023-09-12T12:47:42;6.20;;;3.97;;
11422;SDS011;5768;51.476;7.210;2023-09-12T12:52:46;4.45;;;4.05;;
11422;SDS011;5768;51.476;7.210;2023-09-12T12:57:50;5.28;;;3.97;;
11422;SDS011;5768;51.476;7.210;2023-09-12T13:02:52;5.90;;;4.30;;
11422;SDS011;5768;51.476;7.210;2023-09-12T13:07:55;4.10;;;3.80;;
11422;SDS011;5768;51.476;7.210;2023-09-12T13:12:58;3.40;;;3.10;;
11422;SDS011;5768;51.476;7.210;2023-09-12T13:18:00;5.63;;;3.53;;
11422;SDS011;5768;51.476;7.210;2023-09-12T13:23:05;5.88;;;4.90;;
11422;SDS011;5768;51.476;7.210;2023-09-12T13:28:07;5.28;;;3.72;;
11422;SDS011;5768;51.476;7.210;2023-09-12T13:33:09;4.68;;;4.28;;
11422;SDS011;5768;51.476;7.210;2023-09-12T13:38:13;4.05;;;3.70;;
11422;SDS011;5768;51.476;7.210;2023-09-12T13:43:17;5.95;;;3.70;;
11422;SDS011;5768;51.476;7.210;2023-09-12T13:48:23;4.15;;;3.75;;
11422;SDS011;5768;51.476;7.210;2023-09-12T13:53:27;4.28;;;3.90;;
11422;SDS011;5768;51.476;7.210;2023-09-12T13:58:29;3.78;;;3.47;;
11422;SDS011;5768;51.476;7.210;2023-09-12T14:03:31;4.93;;;3.72;;
11422;SDS011;5768;51.476;7.210;2023-09-12T14:08:35;5.70;;;4.07;;
11422;SDS011;5768;51.476;7.210;2023-09-12T14:13:37;5.05;;;3.60;;
11422;SDS011;5768;51.476;7.210;2023-09-12T14:18:39;4.20;;;3.45;;
11422;SDS011;5768;51.476;7.210;2023-09-12T14:23:43;3.80;;;3.50;;
11422;SDS011;5768;51.476;7.210;2023-09-12T14:28:45;4.35;;;3.67;;
11422;SDS011;5768;51.476;7.210;2023-09-12T14:33:48;4.35;;;3.90;;
11422;SDS011;5768;51.476;7.210;2023-09-12T14:38:53;5.40;;;3.63;;
11422;SDS011;5768;51.476;7.210;2023-09-12T14:43:56;4.70;;;4.22;;
11422;SDS011;5768;51.476;7.210;2023-09-12T14:48:58;4.00;;;3.60;;
11422;SDS011;5768;51.476;7.210;2023-09-12T14:54:02;4.03;;;3.70;;
11422;SDS011;5768;51.476;7.210;2023-09-12T14:59:04;3.80;;;3.50;;
11422;SDS011;5768;51.476;7.210;2023-09-12T15:04:07;4.07;;;3.25;;
11422;SDS011;5768;51.476;7.210;2023-09-12T15:09:12;3.95;;;3.60;;
11422;SDS011;5768;51.476;7.210;2023-09-12T15:14:14;5.00;;;3.88;;
11422;SDS011;5768;51.476;7.210;2023-09-12T15:19:17;5.05;;;4.53;;
11422;SDS011;5768;51.476;7.210;2023-09-12T15:24:20;5.35;;;4.85;;
11422;SDS011;5768;51.476;7.210;2023-09-12T15:29:23;5.88;;;4.40;;
11422;SDS011;5768;51.476;7.210;2023-09-12T15:34:25;4.80;;;4.40;;
11422;SDS011;5768;51.476;7.210;2023-09-12T15:39:29;5.57;;;4.57;;
11422;SDS011;5768;51.476;7.210;2023-09-12T15:44:31;4.85;;;4.10;;
11422;SDS011;5768;51.476;7.210;2023-09-12T15:49:33;4.85;;;4.20;;
11422;SDS011;5768;51.476;7.210;2023-09-12T15:54:37;4.25;;;3.88;;
11422;SDS011;5768;51.476;7.210;2023-09-12T15:59:39;4.38;;;3.97;;
11422;SDS011;5768;51.476;7.210;2023-09-12T16:04:41;4.40;;;4.00;;
11422;SDS011;5768;51.476;7.210;2023-09-12T16:09:45;5.85;;;3.65;;
11422;SDS011;5768;51.476;7.210;2023-09-12T16:14:47;5.88;;;5.38;;
11422;SDS011;5768;51.476;7.210;2023-09-12T16:19:49;4.78;;;4.38;;
11422;SDS011;5768;51.476;7.210;2023-09-12T16:24:54;4.85;;;4.43;;
11422;SDS011;5768;51.476;7.210;2023-09-12T16:29:56;5.53;;;5.03;;
11422;SDS011;5768;51.476;7.210;2023-09-12T16:34:58;6.25;;;5.25;;
11422;SDS011;5768;51.476;7.210;2023-09-12T16:40:03;6.50;;;5.90;;
11422;SDS011;5768;51.476;7.210;2023-09-12T16:45:08;6.60;;;6.00;;
11422;SDS011;5768;51.476;7.210;2023-09-12T16:50:11;6.47;;;5.90;;
11422;SDS011;5768;51.476;7.210;2023-09-12T16:55:14;7.18;;;5.97;;
11422;SDS011;5768;51.476;7.210;2023-09-12T17:00:17;9.02;;;6.75;;
11422;SDS011;5768;51.476;7.210;2023-09-12T17:05:19;6.82;;;6.32;;
11422;SDS011;5768;51.476;7.210;2023-09-12T17:10:24;7.30;;;6.72;;
11422;SDS011;5768;51.476;7.210;2023-09-12T17:15:27;7.50;;;6.65;;
11422;SDS011;5768;51.476;7.210;2023-09-12T17:20:29;7.70;;;7.05;;
11422;SDS011;5768;51.476;7.210;2023-09-12T17:25:33;7.07;;;6.47;;
11422;SDS011;5768;51.476;7.210;2023-09-12T17:30:35;7.60;;;6.80;;
11422;SDS011;5768;51.476;7.210;2023-09-12T17:35:37;8.70;;;7.43;;
11422;SDS011;5768;51.476;7.210;2023-09-12T17:40:41;8.60;;;7.85;;
11422;SDS011;5768;51.476;7.210;2023-09-12T17:45:44;12.93;;;11.82;;
11422;SDS011;5768;51.476;7.210;2023-09-12T17:50:49;9.00;;;7.80;;
11422;SDS011;5768;51.476;7.210;2023-09-12T17:55:53;8.75;;;7.85;;
11422;SDS011;5768;51.476;7.210;2023-09-12T18:00:55;9.35;;;8.45;;
11422;SDS011;5768;51.476;7.210;2023-09-12T18:05:58;8.05;;;7.35;;
11422;SDS011;5768;51.476;7.210;2023-09-12T18:11:02;8.40;;;7.63;;
11422;SDS011;5768;51.476;7.210;2023-09-12T18:16:05;8.77;;;7.95;;
11422;SDS011;5768;51.476;7.210;2023-09-12T18:21:08;8.80;;;8.10;;
11422;SDS011;5768;51.476;7.210;2023-09-12T18:26:11;8.50;;;7.80;;
11422;SDS011;5768;51.476;7.210;2023-09-12T18:31:14;8.85;;;8.15;;
11422;SDS011;5768;51.476;7.210;2023-09-12T18:36:17;9.85;;;8.90;;
11422;SDS011;5768;51.476;7.210;2023-09-12T18:41:21;9.10;;;8.05;;
11422;SDS011;5768;51.476;7.210;2023-09-12T18:46:24;8.82;;;8.10;;
11422;SDS011;5768;51.476;7.210;2023-09-12T18:51:28;9.70;;;8.80;;
11422;SDS011;5768;51.476;7.210;2023-09-12T18:56:32;9.27;;;8.50;;
11422;SDS011;5768;51.476;7.210;2023-09-12T19:01:34;10.95;;;8.65;;
11422;SDS011;5768;51.476;7.210;2023-09-12T19:06:37;10.07;;;9.18;;
11422;SDS011;5768;51.476;7.210;2023-09-12T19:11:40;10.63;;;9.63;;
11422;SDS011;5768;51.476;7.210;2023-09-12T19:16:43;11.82;;;10.82;;
11422;SDS011;5768;51.476;7.210;2023-09-12T19:21:46;12.93;;;11.57;;
11422;SDS011;5768;51.476;7.210;2023-09-12T19:26:50;12.85;;;11.20;;
11422;SDS011;5768;51.476;7.210;2023-09-12T19:31:53;11.68;;;10.60;;
11422;SDS011;5768;51.476;7.210;2023-09-12T19:36:55;12.73;;;11.43;;
11422;SDS011;5768;51.476;7.210;2023-09-12T19:41:59;12.25;;;11.25;;
11422;SDS011;5768;51.476;7.210;2023-09-12T19:47:01;12.60;;;11.40;;
11422;SDS011;5768;51.476;7.210;2023-09-12T19:52:04;14.13;;;12.93;;
11422;SDS011;5768;51.476;7.210;2023-09-12T19:57:08;13.75;;;12.45;;
11422;SDS011;5768;51.476;7.210;2023-09-12T20:02:10;13.48;;;12.30;;
11422;SDS011;5768;51.476;7.210;2023-09-12T20:07:12;13.13;;;11.85;;
11422;SDS011;5768;51.476;7.210;2023-09-12T20:12:16;12.18;;;11.05;;
11422;SDS011;5768;51.476;7.210;2023-09-12T20:17:18;13.07;;;11.75;;
11422;SDS011;5768;51.476;7.210;2023-09-12T20:22:21;13.60;;;12.30;;
11422;SDS011;5768;51.476;7.210;2023-09-12T20:27:25;14.35;;;12.80;;
11422;SDS011;5768;51.476;7.210;2023-09-12T20:32:28;17.17;;;15.57;;
11422;SDS011;5768;51.476;7.210;2023-09-12T20:37:30;16.08;;;14.43;;
11422;SDS011;5768;51.476;7.210;2023-09-12T20:42:34;15.27;;;13.88;;
11422;SDS011;5768;51.476;7.210;2023-09-12T20:47:36;15.35;;;13.95;;
11422;SDS011;5768;51.476;7.210;2023-09-12T20:52:39;15.15;;;13.73;;
11422;SDS011;5768;51.476;7.210;2023-09-12T20:57:42;15.80;;;14.35;;
11422;SDS011;5768;51.476;7.210;2023-09-12T21:02:45;16.23;;;14.55;;
11422;SDS011;5768;51.476;7.210;2023-09-12T21:07:48;18.67;;;14.07;;
11422;SDS011;5768;51.476;7.210;2023-09-12T21:12:51;14.02;;;12.70;;
11422;SDS011;5768;51.476;7.210;2023-09-12T21:17:53;14.88;;;13.65;;
11422;SDS011;5768;51.476;7.210;2023-09-12T21:22:56;15.73;;;14.27;;
11422;SDS011;5768;51.476;7.210;2023-09-12T21:28:01;16.25;;;14.75;;
11422;SDS011;5768;51.476;7.210;2023-09-12T21:33:04;15.50;;;14.15;;
11422;SDS011;5768;51.476;7.210;2023-09-12T21:38:06;15.00;;;13.63;;
11422;SDS011;5768;51.476;7.210;2023-09-12T21:43:10;15.35;;;13.80;;
11422;SDS011;5768;51.476;7.210;2023-09-12T21:48:12;16.10;;;14.50;;
11422;SDS011;5768;51.476;7.210;2023-09-12T21:53:15;16.90;;;15.10;;
11422;SDS011;5768;51.476;7.210;2023-09-12T21:58:18;16.38;;;14.93;;
11422;SDS011;5768;51.476;7.210;2023-09-12T22:03:20;16.95;;;15.25;;
11422;SDS011;5768;51.476;7.210;2023-09-12T22:08:23;16.98;;;15.27;;
11422;SDS011;5768;51.476;7.210;2023-09-12T22:13:27;16.70;;;14.65;;
11422;SDS011;5768;51.476;7.210;2023-09-12T22:18:29;18.13;;;16.40;;
11422;SDS011;5768;51.476;7.210;2023-09-12T22:23:31;18.13;;;16.27;;
11422;SDS011;5768;51.476;7.210;2023-09-12T22:28:35;18.83;;;17.13;;
11422;SDS011;5768;51.476;7.210;2023-09-12T22:33:37;21.33;;;19.17;;
11422;SDS011;5768;51.476;7.210;2023-09-12T22:38:40;20.95;;;18.98;;
11422;SDS011;5768;51.476;7.210;2023-09-12T22:43:43;18.65;;;16.75;;
11422;SDS011;5768;51.476;7.210;2023-09-12T22:48:46;18.60;;;16.85;;
11422;SDS011;5768;51.476;7.210;2023-09-12T22:53:48;19.95;;;18.05;;
11422;SDS011;5768;51.476;7.210;2023-09-12T22:58:51;18.13;;;16.17;;
11422;SDS011;5768;51.476;7.210;2023-09-12T23:03:53;18.90;;;16.90;;
11422;SDS011;5768;51.476;7.210;2023-09-12T23:08:56;18.42;;;16.63;;
11422;SDS011;5768;51.476;7.210;2023-09-12T23:13:59;19.17;;;17.30;;
11422;SDS011;5768;51.476;7.210;2023-09-12T23:19:02;19.02;;;17.05;;
11422;SDS011;5768;51.476;7.210;2023-09-12T23:24:06;15.93;;;14.32;;
11422;SDS011;5768;51.476;7.210;2023-09-12T23:29:10;14.07;;;12.70;;
11422;SDS011;5768;51.476;7.210;2023-09-12T23:34:12;13.25;;;11.88;;
11422;SDS011;5768;51.476;7.210;2023-09-12T23:39:14;14.07;;;12.70;;
11422;SDS011;5768;51.476;7.210;2023-09-12T23:44:18;15.63;;;14.13;;
11422;SDS011;5768;51.476;7.210;2023-09-12T23:49:20;14.75;;;13.07;;
11422;SDS011;5768;51.476;7.210;2023-09-12T23:54:22;14.30;;;12.88;;
11422;SDS011;5768;51.476;7.210;2023-09-12T23:59:29;15.40;;;13.75;;
